sensor_id;sensor_type;location;lat;lon;timestamp;pressure;altitude;pressure_sealevel;temperature;humidity
46394;BME280;32099;53.588;10.176;2022-08-04T00:01:20;101096.97;;;23.01;64.95
46394;BME280;32099;53.588;10.176;2022-08-04T00:03:42;101096.41;;;22.99;64.96
46394;BME280;32099;53.588;10.176;2022-08-04T00:08:40;101097.16;;;22.94;64.93
46394;BME280;32099;53.588;10.176;2022-08-04T00:11:09;101099.34;;;22.92;65.41
46394;BME280;32099;53.588;10.176;2022-08-04T00:13:37;101099.28;;;22.87;65.55
46394;BME280;32099;53.588;10.176;2022-08-04T00:16:07;101093.66;;;22.82;65.72
46394;BME280;32099;53.588;10.176;2022-08-04T00:18:39;101092.50;;;22.77;66.07
46394;BME280;32099;53.588;10.176;2022-08-04T00:21:05;101093.25;;;22.73;66.29
46394;BME280;32099;53.588;10.176;2022-08-04T00:23:32;101086.28;;;22.70;66.19
46394;BME280;32099;53.588;10.176;2022-08-04T00:25:58;101087.88;;;22.66;66.28
46394;BME280;32099;53.588;10.176;2022-08-04T00:28:24;101095.03;;;22.62;66.59
46394;BME280;32099;53.588;10.176;2022-08-04T00:30:49;101089.75;;;22.60;66.55
46394;BME280;32099;53.588;10.176;2022-08-04T00:33:17;101085.78;;;22.56;66.63
46394;BME280;32099;53.588;10.176;2022-08-04T00:35:43;101086.88;;;22.55;66.60
46394;BME280;32099;53.588;10.176;2022-08-04T00:38:08;101088.00;;;22.54;66.64
46394;BME280;32099;53.588;10.176;2022-08-04T00:40:46;101082.09;;;22.50;66.77
46394;BME280;32099;53.588;10.176;2022-08-04T00:43:18;101082.34;;;22.49;67.07
46394;BME280;32099;53.588;10.176;2022-08-04T00:45:59;101082.84;;;22.46;67.25
46394;BME280;32099;53.588;10.176;2022-08-04T00:48:36;101080.22;;;22.39;67.22
46394;BME280;32099;53.588;10.176;2022-08-04T00:51:09;101087.13;;;22.37;67.09
46394;BME280;32099;53.588;10.176;2022-08-04T00:59:03;101075.97;;;22.31;67.53
46394;BME280;32099;53.588;10.176;2022-08-04T01:04:48;101071.34;;;22.20;67.81
46394;BME280;32099;53.588;10.176;2022-08-04T01:12:26;101065.03;;;22.08;67.87
46394;BME280;32099;53.588;10.176;2022-08-04T01:15:02;101059.72;;;22.06;68.26
46394;BME280;32099;53.588;10.176;2022-08-04T01:17:32;101059.72;;;22.06;68.13
46394;BME280;32099;53.588;10.176;2022-08-04T01:20:04;101062.75;;;22.04;67.77
46394;BME280;32099;53.588;10.176;2022-08-04T01:30:25;101052.81;;;21.92;68.47
46394;BME280;32099;53.588;10.176;2022-08-04T01:32:52;101057.81;;;21.90;68.78
46394;BME280;32099;53.588;10.176;2022-08-04T01:40:14;101053.56;;;21.87;68.84
46394;BME280;32099;53.588;10.176;2022-08-04T01:42:41;101040.44;;;21.82;68.99
46394;BME280;32099;53.588;10.176;2022-08-04T01:45:07;101044.09;;;21.83;68.44
46394;BME280;32099;53.588;10.176;2022-08-04T01:47:34;101044.59;;;21.80;68.63
46394;BME280;32099;53.588;10.176;2022-08-04T01:50:12;101045.66;;;21.79;68.99
46394;BME280;32099;53.588;10.176;2022-08-04T01:52:38;101045.94;;;21.77;68.84
46394;BME280;32099;53.588;10.176;2022-08-04T01:55:05;101042.56;;;21.75;69.03
46394;BME280;32099;53.588;10.176;2022-08-04T01:57:31;101039.19;;;21.73;69.31
46394;BME280;32099;53.588;10.176;2022-08-04T01:59:57;101032.22;;;21.70;69.05
46394;BME280;32099;53.588;10.176;2022-08-04T02:02:22;101031.34;;;21.70;68.91
46394;BME280;32099;53.588;10.176;2022-08-04T02:04:48;101028.84;;;21.68;69.04
46394;BME280;32099;53.588;10.176;2022-08-04T02:07:16;101025.47;;;21.66;69.05
46394;BME280;32099;53.588;10.176;2022-08-04T02:10:04;101029.34;;;21.65;69.16
46394;BME280;32099;53.588;10.176;2022-08-04T02:14:55;101029.25;;;21.60;69.00
46394;BME280;32099;53.588;10.176;2022-08-04T02:17:23;101033.31;;;21.57;69.68
46394;BME280;32099;53.588;10.176;2022-08-04T02:22:18;101031.84;;;21.50;69.80
46394;BME280;32099;53.588;10.176;2022-08-04T02:24:45;101026.19;;;21.45;70.13
46394;BME280;32099;53.588;10.176;2022-08-04T02:27:13;101026.66;;;21.41;70.02
46394;BME280;32099;53.588;10.176;2022-08-04T02:32:05;101022.72;;;21.37;70.13
46394;BME280;32099;53.588;10.176;2022-08-04T02:34:32;101022.72;;;21.37;69.99
46394;BME280;32099;53.588;10.176;2022-08-04T02:36:59;101015.50;;;21.36;70.23
46394;BME280;32099;53.588;10.176;2022-08-04T02:39:29;101014.63;;;21.36;69.67
46394;BME280;32099;53.588;10.176;2022-08-04T02:41:55;101021.28;;;21.35;70.29
46394;BME280;32099;53.588;10.176;2022-08-04T02:44:21;101030.09;;;21.32;69.88
46394;BME280;32099;53.588;10.176;2022-08-04T02:46:47;101014.56;;;21.31;70.15
46394;BME280;32099;53.588;10.176;2022-08-04T02:49:14;101015.91;;;21.28;70.32
46394;BME280;32099;53.588;10.176;2022-08-04T02:51:45;101008.06;;;21.25;70.08
46394;BME280;32099;53.588;10.176;2022-08-04T02:54:11;101004.97;;;21.21;70.27
46394;BME280;32099;53.588;10.176;2022-08-04T02:56:39;101007.72;;;21.21;70.36
46394;BME280;32099;53.588;10.176;2022-08-04T02:59:07;101006.06;;;21.20;69.95
46394;BME280;32099;53.588;10.176;2022-08-04T03:01:32;101007.38;;;21.18;70.53
46394;BME280;32099;53.588;10.176;2022-08-04T03:06:49;101015.81;;;21.11;70.87
46394;BME280;32099;53.588;10.176;2022-08-04T03:27:49;101009.66;;;20.92;71.39
46394;BME280;32099;53.588;10.176;2022-08-04T03:30:19;101010.97;;;20.89;71.29
46394;BME280;32099;53.588;10.176;2022-08-04T03:33:36;101008.19;;;20.89;71.19
46394;BME280;32099;53.588;10.176;2022-08-04T03:35:51;101015.69;;;20.89;71.03
46394;BME280;32099;53.588;10.176;2022-08-04T03:38:42;101009.53;;;20.87;70.92
46394;BME280;32099;53.588;10.176;2022-08-04T03:41:19;101010.63;;;20.86;71.21
46394;BME280;32099;53.588;10.176;2022-08-04T03:43:59;101010.03;;;20.84;71.15
46394;BME280;32099;53.588;10.176;2022-08-04T03:46:40;101009.44;;;20.82;71.64
46394;BME280;32099;53.588;10.176;2022-08-04T03:54:45;101017.03;;;20.74;71.31
46394;BME280;32099;53.588;10.176;2022-08-04T03:57:35;101016.41;;;20.72;71.56
46394;BME280;32099;53.588;10.176;2022-08-04T04:00:11;101011.94;;;20.71;71.49
46394;BME280;32099;53.588;10.176;2022-08-04T04:05:12;101007.75;;;20.69;72.34
46394;BME280;32099;53.588;10.176;2022-08-04T04:07:54;101006.06;;;20.68;72.14
46394;BME280;32099;53.588;10.176;2022-08-04T04:10:24;100997.53;;;20.69;72.80
46394;BME280;32099;53.588;10.176;2022-08-04T04:15:30;101005.56;;;20.71;73.24
46394;BME280;32099;53.588;10.176;2022-08-04T04:18:12;100995.94;;;20.73;72.66
46394;BME280;32099;53.588;10.176;2022-08-04T04:20:45;101003.41;;;20.73;72.52
46394;BME280;32099;53.588;10.176;2022-08-04T04:23:21;100997.41;;;20.76;73.06
46394;BME280;32099;53.588;10.176;2022-08-04T04:34:18;100994.84;;;20.86;72.87
46394;BME280;32099;53.588;10.176;2022-08-04T04:36:55;100995.19;;;20.90;72.63
46394;BME280;32099;53.588;10.176;2022-08-04T04:39:35;100997.22;;;20.94;72.79
46394;BME280;32099;53.588;10.176;2022-08-04T04:47:30;100993.22;;;21.02;72.84
46394;BME280;32099;53.588;10.176;2022-08-04T04:50:08;100989.94;;;21.05;72.31
46394;BME280;32099;53.588;10.176;2022-08-04T04:52:40;100993.31;;;21.07;72.51
46394;BME280;32099;53.588;10.176;2022-08-04T04:55:12;100997.53;;;21.10;73.10
46394;BME280;32099;53.588;10.176;2022-08-04T04:57:39;100992.81;;;21.10;72.94
46394;BME280;32099;53.588;10.176;2022-08-04T05:00:06;100994.03;;;21.15;74.13
46394;BME280;32099;53.588;10.176;2022-08-04T05:02:46;100995.44;;;21.17;74.20
46394;BME280;32099;53.588;10.176;2022-08-04T05:13:04;100988.69;;;21.42;74.10
46394;BME280;32099;53.588;10.176;2022-08-04T05:15:34;100982.38;;;21.47;73.91
46394;BME280;32099;53.588;10.176;2022-08-04T05:18:01;100976.91;;;21.52;73.94
46394;BME280;32099;53.588;10.176;2022-08-04T05:20:34;100985.97;;;21.59;73.38
46394;BME280;32099;53.588;10.176;2022-08-04T05:23:06;100980.25;;;21.66;73.61
46394;BME280;32099;53.588;10.176;2022-08-04T05:25:34;100979.00;;;21.73;73.87
46394;BME280;32099;53.588;10.176;2022-08-04T05:28:16;100987.13;;;21.80;73.13
46394;BME280;32099;53.588;10.176;2022-08-04T05:30:42;100983.94;;;21.88;73.48
46394;BME280;32099;53.588;10.176;2022-08-04T05:33:38;100991.00;;;21.96;72.86
46394;BME280;32099;53.588;10.176;2022-08-04T05:35:59;100976.69;;;22.04;73.26
46394;BME280;32099;53.588;10.176;2022-08-04T05:38:28;100980.72;;;22.14;72.56
46394;BME280;32099;53.588;10.176;2022-08-04T05:40:55;100976.97;;;22.25;72.59
46394;BME280;32099;53.588;10.176;2022-08-04T05:43:21;100982.69;;;22.35;72.46
46394;BME280;32099;53.588;10.176;2022-08-04T05:45:47;100977.06;;;22.47;72.35
46394;BME280;32099;53.588;10.176;2022-08-04T05:48:13;100976.66;;;22.61;71.98
46394;BME280;32099;53.588;10.176;2022-08-04T05:50:38;100976.53;;;22.73;71.89
46394;BME280;32099;53.588;10.176;2022-08-04T05:53:04;100972.78;;;22.84;71.26
46394;BME280;32099;53.588;10.176;2022-08-04T05:55:29;100969.00;;;22.95;70.99
46394;BME280;32099;53.588;10.176;2022-08-04T05:57:55;100969.97;;;23.06;70.40
46394;BME280;32099;53.588;10.176;2022-08-04T06:00:23;100973.41;;;23.19;70.47
46394;BME280;32099;53.588;10.176;2022-08-04T06:02:48;100975.50;;;23.29;69.90
46394;BME280;32099;53.588;10.176;2022-08-04T06:05:14;100971.69;;;23.35;69.99
46394;BME280;32099;53.588;10.176;2022-08-04T06:07:41;100971.75;;;23.45;69.52
46394;BME280;32099;53.588;10.176;2022-08-04T06:10:07;100978.53;;;23.60;69.32
46394;BME280;32099;53.588;10.176;2022-08-04T06:12:37;100969.50;;;23.75;68.72
46394;BME280;32099;53.588;10.176;2022-08-04T06:15:02;100971.56;;;23.90;68.21
46394;BME280;32099;53.588;10.176;2022-08-04T06:17:30;100968.38;;;24.08;67.93
46394;BME280;32099;53.588;10.176;2022-08-04T06:19:56;100963.19;;;24.27;67.49
46394;BME280;32099;53.588;10.176;2022-08-04T06:22:22;100965.25;;;24.47;66.97
46394;BME280;32099;53.588;10.176;2022-08-04T06:24:48;100960.88;;;24.67;66.27
46394;BME280;32099;53.588;10.176;2022-08-04T06:27:16;100963.47;;;24.84;66.36
46394;BME280;32099;53.588;10.176;2022-08-04T06:29:41;100955.69;;;24.97;65.37
46394;BME280;32099;53.588;10.176;2022-08-04T06:32:08;100959.34;;;25.07;65.80
46394;BME280;32099;53.588;10.176;2022-08-04T06:34:55;100959.38;;;25.18;64.47
46394;BME280;32099;53.588;10.176;2022-08-04T06:37:22;100956.03;;;25.26;65.05
46394;BME280;32099;53.588;10.176;2022-08-04T06:39:47;100963.00;;;25.39;63.86
46394;BME280;32099;53.588;10.176;2022-08-04T06:42:13;100951.88;;;25.49;64.64
46394;BME280;32099;53.588;10.176;2022-08-04T06:44:39;100954.38;;;25.61;65.07
46394;BME280;32099;53.588;10.176;2022-08-04T06:47:06;100948.81;;;25.77;64.21
46394;BME280;32099;53.588;10.176;2022-08-04T06:49:31;100956.88;;;25.88;64.17
46394;BME280;32099;53.588;10.176;2022-08-04T06:51:57;100958.53;;;26.00;63.68
46394;BME280;32099;53.588;10.176;2022-08-04T06:54:23;100947.38;;;26.15;63.58
46394;BME280;32099;53.588;10.176;2022-08-04T06:56:48;100953.75;;;26.31;62.20
46394;BME280;32099;53.588;10.176;2022-08-04T06:59:15;100948.38;;;26.45;61.96
46394;BME280;32099;53.588;10.176;2022-08-04T07:01:41;100951.38;;;26.59;60.70
46394;BME280;32099;53.588;10.176;2022-08-04T07:04:07;100946.88;;;26.69;60.83
46394;BME280;32099;53.588;10.176;2022-08-04T07:06:32;100951.06;;;26.71;61.23
46394;BME280;32099;53.588;10.176;2022-08-04T07:08:57;100942.94;;;26.75;61.13
46394;BME280;32099;53.588;10.176;2022-08-04T07:11:23;100942.91;;;26.85;60.99
46394;BME280;32099;53.588;10.176;2022-08-04T07:13:49;100935.53;;;27.00;60.26
46394;BME280;32099;53.588;10.176;2022-08-04T07:16:15;100931.50;;;27.16;60.34
46394;BME280;32099;53.588;10.176;2022-08-04T07:18:40;100940.03;;;27.35;59.91
46394;BME280;32099;53.588;10.176;2022-08-04T07:21:06;100939.06;;;27.55;60.23
46394;BME280;32099;53.588;10.176;2022-08-04T07:23:31;100942.22;;;27.78;59.06
46394;BME280;32099;53.588;10.176;2022-08-04T07:25:56;100938.53;;;28.07;58.73
46394;BME280;32099;53.588;10.176;2022-08-04T07:28:23;100943.00;;;28.38;57.51
46394;BME280;32099;53.588;10.176;2022-08-04T07:30:48;100932.00;;;28.66;57.93
46394;BME280;32099;53.588;10.176;2022-08-04T07:33:15;100935.13;;;28.83;56.63
46394;BME280;32099;53.588;10.176;2022-08-04T07:35:40;100933.19;;;29.03;55.78
46394;BME280;32099;53.588;10.176;2022-08-04T07:38:06;100932.88;;;29.23;55.66
46394;BME280;32099;53.588;10.176;2022-08-04T07:40:31;100932.88;;;29.43;54.98
46394;BME280;32099;53.588;10.176;2022-08-04T07:42:57;100935.94;;;29.60;54.75
46394;BME280;32099;53.588;10.176;2022-08-04T07:45:23;100933.88;;;29.80;54.68
46394;BME280;32099;53.588;10.176;2022-08-04T07:47:48;100941.44;;;29.98;53.65
46394;BME280;32099;53.588;10.176;2022-08-04T07:50:13;100932.41;;;30.15;53.57
46394;BME280;32099;53.588;10.176;2022-08-04T07:52:40;100930.84;;;30.37;53.09
46394;BME280;32099;53.588;10.176;2022-08-04T07:55:05;100935.44;;;30.61;52.55
46394;BME280;32099;53.588;10.176;2022-08-04T07:57:31;100924.03;;;30.80;51.62
46394;BME280;32099;53.588;10.176;2022-08-04T07:59:56;100920.38;;;30.93;50.83
46394;BME280;32099;53.588;10.176;2022-08-04T08:02:21;100925.75;;;31.04;51.27
46394;BME280;32099;53.588;10.176;2022-08-04T08:04:47;100919.25;;;31.17;50.17
46394;BME280;32099;53.588;10.176;2022-08-04T08:07:13;100918.56;;;31.34;50.78
46394;BME280;32099;53.588;10.176;2022-08-04T08:09:38;100918.34;;;31.53;49.88
46394;BME280;32099;53.588;10.176;2022-08-04T08:12:03;100921.91;;;31.68;49.67
46394;BME280;32099;53.588;10.176;2022-08-04T08:14:31;100927.53;;;31.91;48.88
46394;BME280;32099;53.588;10.176;2022-08-04T08:16:58;100919.28;;;32.03;48.15
46394;BME280;32099;53.588;10.176;2022-08-04T08:19:23;100917.50;;;32.16;48.08
46394;BME280;32099;53.588;10.176;2022-08-04T08:21:49;100909.50;;;32.32;47.78
46394;BME280;32099;53.588;10.176;2022-08-04T08:24:14;100913.34;;;32.54;46.76
46394;BME280;32099;53.588;10.176;2022-08-04T08:26:40;100915.19;;;32.76;46.11
46394;BME280;32099;53.588;10.176;2022-08-04T08:29:06;100899.13;;;33.03;46.19
46394;BME280;32099;53.588;10.176;2022-08-04T08:31:31;100905.25;;;33.31;45.90
46394;BME280;32099;53.588;10.176;2022-08-04T08:33:56;100906.03;;;33.67;45.54
46394;BME280;32099;53.588;10.176;2022-08-04T08:38:58;100903.06;;;34.11;42.88
46394;BME280;32099;53.588;10.176;2022-08-04T08:46:20;100895.94;;;34.35;42.17
46394;BME280;32099;53.588;10.176;2022-08-04T08:51:30;100897.91;;;34.43;43.45
46394;BME280;32099;53.588;10.176;2022-08-04T08:56:33;100894.06;;;34.48;41.07
46394;BME280;32099;53.588;10.176;2022-08-04T08:59:14;100892.97;;;34.40;41.54
46394;BME280;32099;53.588;10.176;2022-08-04T09:12:17;100880.84;;;35.03;41.18
46394;BME280;32099;53.588;10.176;2022-08-04T09:14:57;100878.25;;;35.10;40.46
46394;BME280;32099;53.588;10.176;2022-08-04T09:17:29;100882.31;;;35.21;40.62
46394;BME280;32099;53.588;10.176;2022-08-04T09:20:42;100885.19;;;35.34;39.69
46394;BME280;32099;53.588;10.176;2022-08-04T09:23:02;100885.75;;;35.48;39.35
46394;BME280;32099;53.588;10.176;2022-08-04T09:25:33;100880.34;;;35.68;39.13
46394;BME280;32099;53.588;10.176;2022-08-04T09:28:04;100883.91;;;35.90;38.68
46394;BME280;32099;53.588;10.176;2022-08-04T09:30:33;100878.16;;;36.11;38.38
46394;BME280;32099;53.588;10.176;2022-08-04T09:33:06;100880.75;;;36.28;37.61
46394;BME280;32099;53.588;10.176;2022-08-04T09:38:09;100873.53;;;36.31;36.70
46394;BME280;32099;53.588;10.176;2022-08-04T09:40:47;100872.84;;;36.34;37.19
46394;BME280;32099;53.588;10.176;2022-08-04T09:46:04;100873.75;;;36.38;37.10
46394;BME280;32099;53.588;10.176;2022-08-04T09:48:34;100876.13;;;36.49;36.12
46394;BME280;32099;53.588;10.176;2022-08-04T09:51:03;100865.59;;;36.62;36.45
46394;BME280;32099;53.588;10.176;2022-08-04T10:01:02;100854.53;;;36.72;36.48
46394;BME280;32099;53.588;10.176;2022-08-04T10:03:31;100856.75;;;36.79;37.06
46394;BME280;32099;53.588;10.176;2022-08-04T10:08:30;100853.03;;;37.03;35.98
46394;BME280;32099;53.588;10.176;2022-08-04T10:21:11;100840.59;;;37.08;35.38
46394;BME280;32099;53.588;10.176;2022-08-04T10:26:26;100840.53;;;36.92;35.11
46394;BME280;32099;53.588;10.176;2022-08-04T10:29:04;100835.50;;;36.73;36.21
46394;BME280;32099;53.588;10.176;2022-08-04T10:31:34;100837.19;;;36.62;36.35
46394;BME280;32099;53.588;10.176;2022-08-04T10:34:05;100832.31;;;36.62;35.48
46394;BME280;32099;53.588;10.176;2022-08-04T10:36:36;100832.03;;;36.51;35.97
46394;BME280;32099;53.588;10.176;2022-08-04T10:39:07;100830.59;;;36.33;35.86
46394;BME280;32099;53.588;10.176;2022-08-04T10:41:44;100837.63;;;36.10;36.95
46394;BME280;32099;53.588;10.176;2022-08-04T10:46:48;100825.56;;;35.89;34.62
46394;BME280;32099;53.588;10.176;2022-08-04T10:49:34;100824.81;;;35.92;33.99
46394;BME280;32099;53.588;10.176;2022-08-04T10:56:55;100810.75;;;36.20;35.81
46394;BME280;32099;53.588;10.176;2022-08-04T10:59:27;100810.91;;;36.11;34.38
46394;BME280;32099;53.588;10.176;2022-08-04T11:01:54;100811.03;;;36.03;35.10
46394;BME280;32099;53.588;10.176;2022-08-04T11:04:30;100816.59;;;35.99;33.84
46394;BME280;32099;53.588;10.176;2022-08-04T11:06:56;100807.72;;;36.01;34.29
46394;BME280;32099;53.588;10.176;2022-08-04T11:09:22;100796.25;;;36.09;34.87
46394;BME280;32099;53.588;10.176;2022-08-04T11:11:48;100797.31;;;36.17;33.38
46394;BME280;32099;53.588;10.176;2022-08-04T11:14:18;100786.53;;;36.23;33.62
46394;BME280;32099;53.588;10.176;2022-08-04T11:17:02;100791.13;;;36.27;33.46
46394;BME280;32099;53.588;10.176;2022-08-04T11:19:33;100788.25;;;36.40;33.75
46394;BME280;32099;53.588;10.176;2022-08-04T11:22:04;100781.06;;;36.42;33.81
46394;BME280;32099;53.588;10.176;2022-08-04T11:27:15;100780.44;;;36.49;34.09
46394;BME280;32099;53.588;10.176;2022-08-04T11:29:49;100774.25;;;36.59;33.46
46394;BME280;32099;53.588;10.176;2022-08-04T11:32:25;100768.09;;;36.57;33.43
46394;BME280;32099;53.588;10.176;2022-08-04T11:34:52;100771.66;;;36.42;33.03
46394;BME280;32099;53.588;10.176;2022-08-04T11:37:26;100772.94;;;36.16;32.43
46394;BME280;32099;53.588;10.176;2022-08-04T11:40:08;100769.78;;;35.93;32.95
46394;BME280;32099;53.588;10.176;2022-08-04T11:42:37;100782.06;;;35.85;34.56
46394;BME280;32099;53.588;10.176;2022-08-04T11:45:20;100779.22;;;35.85;33.59
46394;BME280;32099;53.588;10.176;2022-08-04T11:48:23;100779.81;;;35.78;33.07
46394;BME280;32099;53.588;10.176;2022-08-04T11:50:43;100773.31;;;35.77;34.77
46394;BME280;32099;53.588;10.176;2022-08-04T11:53:13;100768.69;;;35.73;33.59
46394;BME280;32099;53.588;10.176;2022-08-04T11:55:43;100771.19;;;35.74;34.11
46394;BME280;32099;53.588;10.176;2022-08-04T11:58:10;100764.78;;;35.90;34.34
46394;BME280;32099;53.588;10.176;2022-08-04T12:00:37;100764.09;;;36.05;34.14
46394;BME280;32099;53.588;10.176;2022-08-04T12:05:39;100763.56;;;36.28;33.02
46394;BME280;32099;53.588;10.176;2022-08-04T12:10:53;100747.28;;;36.53;32.72
46394;BME280;32099;53.588;10.176;2022-08-04T12:17:09;100745.13;;;36.34;30.82
46394;BME280;32099;53.588;10.176;2022-08-04T12:19:04;100744.44;;;36.12;31.39
46394;BME280;32099;53.588;10.176;2022-08-04T12:21:34;100748.94;;;36.01;32.52
46394;BME280;32099;53.588;10.176;2022-08-04T12:24:04;100736.31;;;35.98;33.31
46394;BME280;32099;53.588;10.176;2022-08-04T12:26:43;100742.00;;;35.98;32.35
46394;BME280;32099;53.588;10.176;2022-08-04T12:29:13;100735.13;;;36.12;34.06
46394;BME280;32099;53.588;10.176;2022-08-04T12:31:54;100742.72;;;36.36;30.46
46394;BME280;32099;53.588;10.176;2022-08-04T12:34:25;100733.66;;;36.59;30.08
46394;BME280;32099;53.588;10.176;2022-08-04T12:36:56;100724.28;;;36.71;32.09
46394;BME280;32099;53.588;10.176;2022-08-04T12:39:23;100727.72;;;36.93;31.47
46394;BME280;32099;53.588;10.176;2022-08-04T12:44:34;100728.19;;;36.95;30.13
46394;BME280;32099;53.588;10.176;2022-08-04T12:47:00;100722.00;;;36.77;31.05
46394;BME280;32099;53.588;10.176;2022-08-04T12:49:26;100719.03;;;36.57;29.42
46394;BME280;32099;53.588;10.176;2022-08-04T12:51:52;100724.47;;;36.50;31.40
46394;BME280;32099;53.588;10.176;2022-08-04T12:54:24;100714.72;;;36.63;30.50
46394;BME280;32099;53.588;10.176;2022-08-04T12:56:50;100704.88;;;36.89;30.67
46394;BME280;32099;53.588;10.176;2022-08-04T12:59:16;100702.63;;;37.11;30.33
46394;BME280;32099;53.588;10.176;2022-08-04T13:01:46;100697.66;;;37.24;30.39
46394;BME280;32099;53.588;10.176;2022-08-04T13:04:14;100703.19;;;37.32;31.18
46394;BME280;32099;53.588;10.176;2022-08-04T13:06:40;100700.25;;;37.45;30.14
46394;BME280;32099;53.588;10.176;2022-08-04T13:09:07;100701.25;;;37.53;30.38
46394;BME280;32099;53.588;10.176;2022-08-04T13:11:35;100698.88;;;37.55;30.31
46394;BME280;32099;53.588;10.176;2022-08-04T13:14:01;100693.47;;;37.49;29.54
46394;BME280;32099;53.588;10.176;2022-08-04T13:16:27;100694.84;;;37.40;30.28
46394;BME280;32099;53.588;10.176;2022-08-04T13:18:53;100692.09;;;37.59;30.42
46394;BME280;32099;53.588;10.176;2022-08-04T13:21:20;100689.81;;;37.85;28.59
46394;BME280;32099;53.588;10.176;2022-08-04T13:23:46;100691.34;;;38.18;30.23
46394;BME280;32099;53.588;10.176;2022-08-04T13:26:12;100699.81;;;38.73;29.68
46394;BME280;32099;53.588;10.176;2022-08-04T13:28:39;100700.81;;;39.77;28.85
46394;BME280;32099;53.588;10.176;2022-08-04T13:31:05;100693.25;;;40.95;27.97
46394;BME280;32099;53.588;10.176;2022-08-04T13:33:32;100685.94;;;42.16;27.22
46394;BME280;32099;53.588;10.176;2022-08-04T13:35:58;100686.91;;;42.46;26.38
46394;BME280;32099;53.588;10.176;2022-08-04T13:38:24;100684.88;;;42.61;24.53
46394;BME280;32099;53.588;10.176;2022-08-04T13:40:49;100688.06;;;44.15;25.23
46394;BME280;32099;53.588;10.176;2022-08-04T13:43:23;100680.00;;;46.64;22.36
46394;BME280;32099;53.588;10.176;2022-08-04T13:45:49;100684.34;;;49.02;19.95
46394;BME280;32099;53.588;10.176;2022-08-04T13:48:14;100682.88;;;49.72;19.77
46394;BME280;32099;53.588;10.176;2022-08-04T13:50:40;100679.13;;;50.96;18.53
46394;BME280;32099;53.588;10.176;2022-08-04T13:53:09;100672.13;;;51.54;17.87
46394;BME280;32099;53.588;10.176;2022-08-04T13:55:34;100668.91;;;50.78;16.97
46394;BME280;32099;53.588;10.176;2022-08-04T14:00:25;100658.69;;;51.34;17.18
46394;BME280;32099;53.588;10.176;2022-08-04T14:03:02;100658.44;;;50.93;17.21
46394;BME280;32099;53.588;10.176;2022-08-04T14:05:29;100647.56;;;48.32;18.92
46394;BME280;32099;53.588;10.176;2022-08-04T14:10:21;100631.31;;;43.19;21.61
46394;BME280;32099;53.588;10.176;2022-08-04T14:12:48;100622.56;;;41.44;24.24
46394;BME280;32099;53.588;10.176;2022-08-04T14:15:33;100613.19;;;40.16;26.06
46394;BME280;32099;53.588;10.176;2022-08-04T14:18:15;100625.03;;;39.26;26.62
46394;BME280;32099;53.588;10.176;2022-08-04T14:20:57;100618.13;;;38.57;27.69
46394;BME280;32099;53.588;10.176;2022-08-04T14:23:23;100610.28;;;38.08;29.29
46394;BME280;32099;53.588;10.176;2022-08-04T14:25:49;100608.59;;;37.87;28.54
46394;BME280;32099;53.588;10.176;2022-08-04T14:28:25;100609.69;;;37.63;28.61
46394;BME280;32099;53.588;10.176;2022-08-04T14:30:51;100608.25;;;37.53;30.17
46394;BME280;32099;53.588;10.176;2022-08-04T14:33:16;100607.72;;;37.47;29.13
46394;BME280;32099;53.588;10.176;2022-08-04T14:35:42;100611.75;;;37.46;29.80
46394;BME280;32099;53.588;10.176;2022-08-04T14:38:19;100606.06;;;37.46;29.07
46394;BME280;32099;53.588;10.176;2022-08-04T14:40:44;100607.06;;;37.54;29.41
46394;BME280;32099;53.588;10.176;2022-08-04T14:43:10;100610.88;;;37.62;29.52
46394;BME280;32099;53.588;10.176;2022-08-04T14:45:36;100613.66;;;37.58;29.05
46394;BME280;32099;53.588;10.176;2022-08-04T14:48:05;100613.94;;;37.53;29.50
46394;BME280;32099;53.588;10.176;2022-08-04T14:50:44;100603.22;;;37.46;29.37
46394;BME280;32099;53.588;10.176;2022-08-04T14:53:10;100607.19;;;37.26;29.37
46394;BME280;32099;53.588;10.176;2022-08-04T14:55:36;100605.09;;;37.07;29.95
46394;BME280;32099;53.588;10.176;2022-08-04T14:58:02;100609.50;;;36.88;28.88
46394;BME280;32099;53.588;10.176;2022-08-04T15:00:30;100613.06;;;36.69;29.87
46394;BME280;32099;53.588;10.176;2022-08-04T15:03:03;100617.16;;;36.55;30.73
46394;BME280;32099;53.588;10.176;2022-08-04T15:05:30;100621.72;;;36.44;31.10
46394;BME280;32099;53.588;10.176;2022-08-04T15:07:56;100639.97;;;36.31;30.57
46394;BME280;32099;53.588;10.176;2022-08-04T15:10:22;100650.72;;;36.09;31.18
46394;BME280;32099;53.588;10.176;2022-08-04T15:12:47;100654.22;;;35.77;32.79
46394;BME280;32099;53.588;10.176;2022-08-04T15:15:12;100667.00;;;35.46;33.98
46394;BME280;32099;53.588;10.176;2022-08-04T15:17:38;100671.94;;;35.12;34.98
46394;BME280;32099;53.588;10.176;2022-08-04T15:20:04;100668.69;;;34.76;35.09
46394;BME280;32099;53.588;10.176;2022-08-04T15:22:30;100664.38;;;34.45;36.44
46394;BME280;32099;53.588;10.176;2022-08-04T15:24:56;100657.13;;;34.14;37.42
46394;BME280;32099;53.588;10.176;2022-08-04T15:27:25;100654.66;;;33.92;38.43
46394;BME280;32099;53.588;10.176;2022-08-04T15:29:51;100669.94;;;33.69;39.02
46394;BME280;32099;53.588;10.176;2022-08-04T15:32:18;100695.66;;;33.47;39.99
46394;BME280;32099;53.588;10.176;2022-08-04T15:34:45;100695.06;;;33.23;40.97
46394;BME280;32099;53.588;10.176;2022-08-04T15:37:10;100704.47;;;32.98;41.70
46394;BME280;32099;53.588;10.176;2022-08-04T15:39:45;100706.16;;;32.72;41.99